createdAt,value
2023-03-30T00:01:12.653Z,5.07
2023-03-30T00:03:40.144Z,4.97
2023-03-30T00:06:09.249Z,5.53
2023-03-30T00:08:38.161Z,5.00
2023-03-30T00:11:09.463Z,5.38
2023-03-30T00:13:38.633Z,5.40
2023-03-30T00:16:08.551Z,5.30
2023-03-30T00:18:39.793Z,4.75
2023-03-30T00:21:12.918Z,5.70
2023-03-30T00:23:42.495Z,5.57
2023-03-30T00:26:10.077Z,5.45
2023-03-30T00:28:37.629Z,5.75
2023-03-30T00:31:05.237Z,5.53
2023-03-30T00:33:44.832Z,5.55
2023-03-30T00:36:15.053Z,5.30
2023-03-30T00:38:42.727Z,5.78
2023-03-30T00:41:10.258Z,5.20
2023-03-30T00:43:59.089Z,5.80
2023-03-30T00:46:27.179Z,5.72
2023-03-30T00:49:05.580Z,5.82
2023-03-30T00:51:40.827Z,5.75
2023-03-30T00:54:13.789Z,5.60
2023-03-30T00:56:41.406Z,6.28
2023-03-30T00:59:10.662Z,5.78
2023-03-30T01:01:40.965Z,5.90
2023-03-30T01:04:10.289Z,6.10
2023-03-30T01:06:41.058Z,5.72
2023-03-30T01:09:08.984Z,6.07
2023-03-30T01:11:36.890Z,6.38
2023-03-30T01:14:08.557Z,6.15
2023-03-30T01:17:01.933Z,6.07
2023-03-30T01:20:26.809Z,6.20
2023-03-30T01:23:27.525Z,6.57
2023-03-30T01:26:21.058Z,6.38
2023-03-30T01:29:25.318Z,6.20
2023-03-30T01:32:26.685Z,6.60
2023-03-30T01:35:17.038Z,6.40
2023-03-30T01:38:02.632Z,6.88
2023-03-30T01:40:33.767Z,6.82
2023-03-30T01:43:21.082Z,7.03
2023-03-30T01:46:03.559Z,7.55
2023-03-30T01:48:59.507Z,6.65
2023-03-30T01:52:16.675Z,6.38
2023-03-30T01:55:03.158Z,7.70
2023-03-30T01:57:48.340Z,8.40
2023-03-30T02:00:20.728Z,8.00
2023-03-30T02:03:20.190Z,7.63
2023-03-30T02:05:51.846Z,7.40
2023-03-30T02:08:25.355Z,8.23
2023-03-30T02:13:23.983Z,8.75
2023-03-30T02:15:58.149Z,8.63
2023-03-30T02:18:27.854Z,8.70
2023-03-30T02:20:59.148Z,9.77
2023-03-30T02:23:34.061Z,8.75
2023-03-30T02:26:02.295Z,8.30
2023-03-30T02:28:31.026Z,8.13
2023-03-30T02:30:58.674Z,8.98
2023-03-30T02:33:42.896Z,9.45
2023-03-30T02:36:37.780Z,9.30
2023-03-30T02:39:07.963Z,9.02
2023-03-30T02:42:16.996Z,9.30
2023-03-30T02:45:32.381Z,9.65
2023-03-30T02:48:42.791Z,9.57
2023-03-30T02:51:39.560Z,9.23
2023-03-30T02:54:23.398Z,8.82
2023-03-30T03:00:00.206Z,9.07
2023-03-30T03:02:35.841Z,9.90
2023-03-30T03:05:04.445Z,9.90
2023-03-30T03:07:34.178Z,9.30
2023-03-30T03:10:01.680Z,9.02
2023-03-30T03:12:30.026Z,9.25
2023-03-30T03:14:58.126Z,9.95
2023-03-30T03:17:29.834Z,9.55
2023-03-30T03:19:58.027Z,9.60
2023-03-30T03:22:26.506Z,8.75
2023-03-30T03:24:56.209Z,9.48
2023-03-30T03:27:24.067Z,10.50
2023-03-30T03:29:51.431Z,9.68
2023-03-30T03:32:18.858Z,9.38
2023-03-30T03:34:46.350Z,10.32
2023-03-30T03:37:21.101Z,9.23
2023-03-30T03:39:48.421Z,10.60
2023-03-30T03:42:15.982Z,10.07
2023-03-30T03:44:43.309Z,9.60
2023-03-30T03:47:16.015Z,10.18
2023-03-30T03:49:49.979Z,10.75
2023-03-30T03:52:17.679Z,10.70
2023-03-30T03:54:44.912Z,9.60
2023-03-30T03:57:12.368Z,10.35
2023-03-30T03:59:39.945Z,10.40
2023-03-30T04:02:07.076Z,9.52
2023-03-30T04:04:34.411Z,11.00
2023-03-30T04:07:03.712Z,10.43
2023-03-30T04:09:31.334Z,9.38
2023-03-30T04:11:58.829Z,10.57
2023-03-30T04:14:26.290Z,9.27
2023-03-30T04:16:53.581Z,9.20
2023-03-30T04:19:25.521Z,9.50
2023-03-30T04:21:53.270Z,9.50
2023-03-30T04:24:20.664Z,9.73
2023-03-30T04:26:49.166Z,9.50
2023-03-30T04:29:18.167Z,9.50
2023-03-30T04:31:51.146Z,9.48
2023-03-30T04:34:22.092Z,9.68
2023-03-30T04:36:49.472Z,10.15
2023-03-30T04:39:18.464Z,9.55
2023-03-30T04:41:46.317Z,8.63
2023-03-30T04:44:14.560Z,9.15
2023-03-30T04:46:42.375Z,8.65
2023-03-30T04:49:09.445Z,8.95
2023-03-30T04:51:37.721Z,8.32
2023-03-30T04:54:05.212Z,8.38
2023-03-30T04:56:32.437Z,7.97
2023-03-30T04:59:00.765Z,8.50
2023-03-30T05:01:28.704Z,8.07
2023-03-30T05:03:56.409Z,7.75
2023-03-30T05:06:24.687Z,8.38
2023-03-30T05:08:54.179Z,8.18
2023-03-30T05:11:21.616Z,7.82
2023-03-30T05:13:52.310Z,8.25
2023-03-30T05:16:19.831Z,8.18
2023-03-30T05:18:49.348Z,7.70
2023-03-30T05:21:26.686Z,7.93
2023-03-30T05:23:55.877Z,8.45
2023-03-30T05:26:24.203Z,8.20
2023-03-30T05:28:51.786Z,8.95
2023-03-30T05:31:20.072Z,8.13
2023-03-30T05:33:48.064Z,10.07
2023-03-30T05:36:15.323Z,9.73
2023-03-30T05:38:42.679Z,9.65
2023-03-30T05:41:10.184Z,8.85
2023-03-30T05:43:37.721Z,7.50
2023-03-30T05:46:07.069Z,7.95
2023-03-30T05:48:34.466Z,8.35
2023-03-30T05:51:02.544Z,7.40
2023-03-30T05:53:29.915Z,8.27
2023-03-30T05:55:57.513Z,8.15
2023-03-30T05:58:24.912Z,8.07
2023-03-30T06:00:52.949Z,7.82
2023-03-30T06:03:20.333Z,7.07
2023-03-30T06:05:48.307Z,6.90
2023-03-30T06:08:15.866Z,6.38
2023-03-30T06:10:53.234Z,6.63
2023-03-30T06:13:20.468Z,7.13
2023-03-30T06:15:48.046Z,6.60
2023-03-30T06:18:15.800Z,6.53
2023-03-30T06:20:48.068Z,7.03
2023-03-30T06:23:15.945Z,5.90
2023-03-30T06:25:46.762Z,6.40
2023-03-30T06:28:14.372Z,6.68
2023-03-30T06:30:42.732Z,5.80
2023-03-30T06:33:10.112Z,6.28
2023-03-30T06:35:38.043Z,6.05
2023-03-30T06:38:05.188Z,6.72
2023-03-30T06:40:32.563Z,5.32
2023-03-30T06:43:00.126Z,5.85
2023-03-30T06:45:28.109Z,5.32
2023-03-30T06:47:56.568Z,5.05
2023-03-30T06:50:24.214Z,5.65
2023-03-30T06:52:51.550Z,5.80
2023-03-30T06:55:18.850Z,5.50
2023-03-30T06:57:46.360Z,5.70
2023-03-30T07:00:16.295Z,5.53
2023-03-30T07:02:43.626Z,5.20
2023-03-30T07:05:15.971Z,6.25
2023-03-30T07:07:48.933Z,5.45
2023-03-30T07:10:16.554Z,5.97
2023-03-30T07:12:43.811Z,5.07
2023-03-30T07:15:11.689Z,4.45
2023-03-30T07:17:41.580Z,5.25
2023-03-30T07:20:11.127Z,5.20
2023-03-30T07:22:39.347Z,5.25
2023-03-30T07:25:07.356Z,5.30
2023-03-30T07:27:36.425Z,5.50
2023-03-30T07:30:17.856Z,5.13
2023-03-30T07:32:50.810Z,5.05
2023-03-30T07:35:19.648Z,5.38
2023-03-30T07:37:50.756Z,5.10
2023-03-30T07:40:19.936Z,4.78
2023-03-30T07:42:48.092Z,5.50
2023-03-30T07:45:16.640Z,5.70
2023-03-30T07:47:44.245Z,5.65
2023-03-30T07:50:11.743Z,5.45
2023-03-30T07:52:45.549Z,5.68
2023-03-30T07:55:13.501Z,5.95
2023-03-30T07:57:40.958Z,5.78
2023-03-30T08:00:10.785Z,5.85
2023-03-30T08:02:38.289Z,6.10
2023-03-30T08:05:06.943Z,4.95
2023-03-30T08:07:35.788Z,5.32
2023-03-30T08:10:04.543Z,5.10
2023-03-30T08:12:32.078Z,4.93
2023-03-30T08:14:59.485Z,5.35
2023-03-30T08:17:27.141Z,5.10
2023-03-30T08:19:56.470Z,5.60
2023-03-30T08:22:29.994Z,5.40
2023-03-30T08:25:04.195Z,4.70
2023-03-30T08:27:31.834Z,5.45
2023-03-30T08:30:01.297Z,5.75
2023-03-30T08:32:28.589Z,5.47
2023-03-30T08:34:55.952Z,5.30
2023-03-30T08:37:23.556Z,4.70
2023-03-30T08:39:54.017Z,5.82
2023-03-30T08:42:58.613Z,5.95
2023-03-30T08:47:55.009Z,5.78
2023-03-30T08:50:38.111Z,5.35
2023-03-30T08:53:07.602Z,6.20
2023-03-30T08:55:54.287Z,6.60
2023-03-30T08:58:55.244Z,5.45
2023-03-30T09:01:59.649Z,5.38
2023-03-30T09:04:39.837Z,4.82
2023-03-30T09:07:29.188Z,4.95
2023-03-30T09:09:57.808Z,5.18
2023-03-30T09:12:48.476Z,4.82
2023-03-30T09:15:17.664Z,4.60
2023-03-30T09:18:08.079Z,4.35
2023-03-30T09:20:39.135Z,4.78
2023-03-30T09:23:13.885Z,5.07
2023-03-30T09:26:07.004Z,4.15
2023-03-30T09:28:48.586Z,4.78
2023-03-30T09:31:36.370Z,5.35
2023-03-30T09:34:29.698Z,3.95
2023-03-30T09:37:10.352Z,4.40
2023-03-30T09:39:39.172Z,3.60
2023-03-30T09:42:19.028Z,4.70
2023-03-30T09:44:55.951Z,5.05
2023-03-30T09:47:29.158Z,4.60
2023-03-30T09:50:06.192Z,5.45
2023-03-30T09:52:39.174Z,4.68
2023-03-30T09:55:21.941Z,4.72
2023-03-30T09:57:53.849Z,4.97
2023-03-30T10:00:34.533Z,5.20
2023-03-30T10:03:07.180Z,4.10
2023-03-30T10:05:36.936Z,4.07
2023-03-30T10:08:18.014Z,4.78
2023-03-30T10:10:45.648Z,4.85
2023-03-30T10:13:16.798Z,4.40
2023-03-30T10:15:50.211Z,3.95
2023-03-30T10:18:38.454Z,4.20
2023-03-30T10:21:23.128Z,3.90
2023-03-30T10:24:04.833Z,4.65
2023-03-30T10:26:34.908Z,4.82
2023-03-30T10:29:08.230Z,4.28
2023-03-30T10:31:38.060Z,3.95
2023-03-30T10:34:14.962Z,3.85
2023-03-30T10:36:42.234Z,4.47
2023-03-30T10:39:18.197Z,4.70
2023-03-30T10:41:49.052Z,4.80
2023-03-30T10:44:36.157Z,5.07
2023-03-30T10:47:18.019Z,4.38
2023-03-30T10:49:53.433Z,3.85
2023-03-30T10:52:52.000Z,4.82
2023-03-30T10:55:31.855Z,4.22
2023-03-30T10:58:37.355Z,3.85
2023-03-30T11:01:18.776Z,3.88
2023-03-30T11:03:52.356Z,4.22
2023-03-30T11:06:28.802Z,3.70
2023-03-30T11:09:06.334Z,4.05
2023-03-30T11:11:51.640Z,3.60
2023-03-30T11:14:55.674Z,4.18
2023-03-30T11:17:54.554Z,3.88
2023-03-30T11:20:47.773Z,3.65
2023-03-30T11:23:55.705Z,6.18
2023-03-30T11:26:43.389Z,3.22
2023-03-30T11:29:27.344Z,3.35
2023-03-30T11:32:17.606Z,3.47
2023-03-30T11:35:05.908Z,3.10
2023-03-30T11:37:48.694Z,3.08
2023-03-30T11:40:47.237Z,3.17
2023-03-30T11:43:18.067Z,3.75
2023-03-30T11:46:05.454Z,3.13
2023-03-30T11:49:05.907Z,3.50
2023-03-30T11:51:54.347Z,3.72
2023-03-30T11:55:01.788Z,3.10
2023-03-30T11:57:51.681Z,3.25
2023-03-30T12:00:41.364Z,3.10
2023-03-30T12:03:40.408Z,3.40
2023-03-30T12:06:28.619Z,3.00
2023-03-30T12:09:05.355Z,3.42
2023-03-30T12:11:51.081Z,2.92
2023-03-30T12:14:47.511Z,3.10
2023-03-30T12:17:33.689Z,3.00
2023-03-30T12:20:09.771Z,4.13
2023-03-30T12:23:01.611Z,4.07
2023-03-30T12:25:45.395Z,3.22
2023-03-30T12:28:17.047Z,4.55
2023-03-30T12:30:56.769Z,3.70
2023-03-30T12:33:36.707Z,3.33
2023-03-30T12:36:40.228Z,3.80
2023-03-30T12:39:49.491Z,3.85
2023-03-30T12:42:37.870Z,3.60
2023-03-30T12:45:22.198Z,4.18
2023-03-30T12:48:08.001Z,4.38
2023-03-30T12:50:59.811Z,3.85
2023-03-30T12:53:58.746Z,4.85
2023-03-30T12:56:37.246Z,4.35
2023-03-30T12:59:15.841Z,5.05
2023-03-30T13:02:12.112Z,4.68
2023-03-30T13:04:44.061Z,4.63
2023-03-30T13:07:22.314Z,5.35
2023-03-30T13:09:59.744Z,4.80
2023-03-30T13:12:31.579Z,5.00
2023-03-30T13:15:03.185Z,4.97
2023-03-30T13:18:01.734Z,7.30
2023-03-30T13:20:56.320Z,5.90
2023-03-30T13:23:23.769Z,5.85
2023-03-30T13:26:09.319Z,5.45
2023-03-30T13:28:57.514Z,6.05
2023-03-30T13:32:02.498Z,6.55
2023-03-30T13:34:51.454Z,8.30
2023-03-30T13:38:07.613Z,7.00
2023-03-30T13:40:48.787Z,7.05
2023-03-30T13:43:50.911Z,8.43
2023-03-30T13:46:28.297Z,9.20
2023-03-30T13:49:19.045Z,8.02
2023-03-30T13:51:47.854Z,7.32
2023-03-30T13:54:22.176Z,8.05
2023-03-30T13:56:57.852Z,7.72
2023-03-30T13:59:32.144Z,8.13
2023-03-30T14:02:01.755Z,8.50
2023-03-30T14:04:39.361Z,8.38
2023-03-30T14:07:19.542Z,9.10
2023-03-30T14:10:12.902Z,9.07
2023-03-30T14:12:42.021Z,9.70
2023-03-30T14:15:38.077Z,9.52
2023-03-30T14:18:05.899Z,9.20
2023-03-30T14:21:15.934Z,10.05
2023-03-30T14:23:51.227Z,11.13
2023-03-30T14:26:29.641Z,11.07
2023-03-30T14:29:10.775Z,10.95
2023-03-30T14:31:40.269Z,10.27
2023-03-30T14:34:34.325Z,10.15
2023-03-30T14:37:12.436Z,8.05
2023-03-30T14:39:50.135Z,8.57
2023-03-30T14:42:24.883Z,7.60
2023-03-30T14:44:55.888Z,7.30
2023-03-30T14:47:30.098Z,6.47
2023-03-30T14:50:01.705Z,6.30
2023-03-30T14:52:38.185Z,6.05
2023-03-30T14:55:18.261Z,5.55
2023-03-30T14:57:47.320Z,5.93
2023-03-30T15:00:20.639Z,5.20
2023-03-30T15:02:58.980Z,5.72
2023-03-30T15:05:32.825Z,5.85
2023-03-30T15:10:44.485Z,5.45
2023-03-30T15:13:28.457Z,6.03
2023-03-30T15:15:57.228Z,6.20
2023-03-30T15:18:27.421Z,7.00
2023-03-30T15:20:56.897Z,8.23
2023-03-30T15:23:26.372Z,6.68
2023-03-30T15:25:57.648Z,6.63
2023-03-30T15:28:25.341Z,6.80
2023-03-30T15:30:54.013Z,7.78
2023-03-30T15:33:36.517Z,8.43
2023-03-30T15:36:18.638Z,8.63
2023-03-30T15:38:59.049Z,8.38
2023-03-30T15:42:01.750Z,8.63
2023-03-30T15:44:37.926Z,8.95
2023-03-30T15:47:20.099Z,8.75
2023-03-30T15:49:52.014Z,8.70
2023-03-30T15:52:43.524Z,11.20
2023-03-30T15:55:21.558Z,11.68
2023-03-30T15:57:52.459Z,11.98
2023-03-30T16:00:27.535Z,10.95
2023-03-30T16:03:00.561Z,11.02
2023-03-30T16:05:34.278Z,12.00
2023-03-30T16:08:02.949Z,11.55
2023-03-30T16:10:34.002Z,11.10
2023-03-30T16:13:02.471Z,11.75
2023-03-30T16:15:33.257Z,12.10
2023-03-30T16:18:01.439Z,12.15
2023-03-30T16:20:32.233Z,14.05
2023-03-30T16:23:00.074Z,12.50
2023-03-30T16:28:01.197Z,13.13
2023-03-30T16:30:34.894Z,13.13
2023-03-30T16:35:32.678Z,11.38
2023-03-30T16:38:06.450Z,14.45
2023-03-30T16:40:43.151Z,13.00
2023-03-30T16:43:13.256Z,15.13
2023-03-30T16:45:42.123Z,15.48
2023-03-30T16:48:15.471Z,16.15
2023-03-30T16:50:45.754Z,16.67
2023-03-30T16:53:14.661Z,16.60
2023-03-30T16:55:45.954Z,16.20
2023-03-30T16:58:15.808Z,18.55
2023-03-30T17:00:50.127Z,17.55
2023-03-30T17:03:19.086Z,17.13
2023-03-30T17:05:49.239Z,18.45
2023-03-30T17:08:23.849Z,17.80
2023-03-30T17:10:53.830Z,18.38
2023-03-30T17:13:22.427Z,19.23
2023-03-30T17:15:50.097Z,18.05
2023-03-30T17:18:26.304Z,18.27
2023-03-30T17:20:56.679Z,18.98
2023-03-30T17:23:36.967Z,18.77
2023-03-30T17:26:05.657Z,18.70
2023-03-30T17:28:35.901Z,19.13
2023-03-30T17:31:09.163Z,19.17
2023-03-30T17:33:38.510Z,19.10
2023-03-30T17:36:27.195Z,18.92
2023-03-30T17:38:56.818Z,20.10
2023-03-30T17:41:25.089Z,18.88
2023-03-30T17:43:55.724Z,17.70
2023-03-30T17:46:24.154Z,17.63
2023-03-30T17:48:52.802Z,17.45
2023-03-30T17:51:21.360Z,17.38
2023-03-30T17:53:49.347Z,17.58
2023-03-30T17:56:31.908Z,17.83
2023-03-30T17:59:00.612Z,17.17
2023-03-30T18:01:28.619Z,17.40
2023-03-30T18:03:57.260Z,15.52
2023-03-30T18:06:27.072Z,17.27
2023-03-30T18:08:56.084Z,16.10
2023-03-30T18:11:24.375Z,16.13
2023-03-30T18:13:53.952Z,14.68
2023-03-30T18:16:25.919Z,14.95
2023-03-30T18:18:57.932Z,14.93
2023-03-30T18:21:27.104Z,14.07
2023-03-30T18:23:55.508Z,15.90
2023-03-30T18:26:23.789Z,15.38
2023-03-30T18:28:51.950Z,15.02
2023-03-30T18:31:23.113Z,14.65
2023-03-30T18:33:55.806Z,13.50
2023-03-30T18:36:25.005Z,14.20
2023-03-30T18:38:55.862Z,13.63
2023-03-30T18:41:23.881Z,12.73
2023-03-30T18:43:53.174Z,12.98
2023-03-30T18:46:23.842Z,11.80
2023-03-30T18:48:52.064Z,12.20
2023-03-30T18:51:22.360Z,13.75
2023-03-30T18:53:50.425Z,12.20
2023-03-30T18:56:18.921Z,13.23
2023-03-30T18:58:49.230Z,13.18
2023-03-30T19:01:18.310Z,14.15
2023-03-30T19:03:47.427Z,13.15
2023-03-30T19:06:22.838Z,12.55
2023-03-30T19:08:52.012Z,12.23
2023-03-30T19:11:28.343Z,12.45
2023-03-30T19:13:57.274Z,12.10
2023-03-30T19:16:26.130Z,11.95
2023-03-30T19:18:56.198Z,12.65
2023-03-30T19:21:26.242Z,12.32
2023-03-30T19:23:57.473Z,13.13
2023-03-30T19:26:26.788Z,13.52
2023-03-30T19:28:55.069Z,14.15
2023-03-30T19:31:23.772Z,13.52
2023-03-30T19:33:52.445Z,14.45
2023-03-30T19:36:24.035Z,14.10
2023-03-30T19:38:56.778Z,13.67
2023-03-30T19:41:32.749Z,12.93
2023-03-30T19:44:02.345Z,11.30
2023-03-30T19:46:38.650Z,11.73
2023-03-30T19:49:07.922Z,12.88
2023-03-30T19:51:36.527Z,13.27
2023-03-30T19:54:11.254Z,13.70
2023-03-30T19:56:40.178Z,12.85
2023-03-30T19:59:09.969Z,14.05
2023-03-30T20:01:38.685Z,14.57
2023-03-30T20:04:13.571Z,14.40
2023-03-30T20:06:41.615Z,15.10
2023-03-30T20:09:10.036Z,12.55
2023-03-30T20:11:37.960Z,13.57
2023-03-30T20:14:07.782Z,12.45
2023-03-30T20:16:35.917Z,12.65
2023-03-30T20:19:15.945Z,13.35
2023-03-30T20:21:50.035Z,14.40
2023-03-30T20:24:17.778Z,14.30
2023-03-30T20:26:47.058Z,13.20
2023-03-30T20:29:14.781Z,14.50
2023-03-30T20:31:42.948Z,14.77
2023-03-30T20:34:13.069Z,15.50
2023-03-30T20:36:40.800Z,15.27
2023-03-30T20:39:10.206Z,15.32
2023-03-30T20:41:40.559Z,14.68
2023-03-30T20:44:11.752Z,16.02
2023-03-30T20:46:40.413Z,17.70
2023-03-30T20:49:10.361Z,17.95
2023-03-30T20:51:39.929Z,16.60
2023-03-30T20:54:07.528Z,16.00
2023-03-30T20:56:34.931Z,11.88
2023-03-30T20:59:02.603Z,12.02
2023-03-30T21:01:32.060Z,11.52
2023-03-30T21:04:02.649Z,8.00
2023-03-30T21:06:34.104Z,8.52
2023-03-30T21:09:06.223Z,17.92
2023-03-30T21:11:39.040Z,7.75
2023-03-30T21:14:08.930Z,9.03
2023-03-30T21:16:38.208Z,6.32
2023-03-30T21:19:06.135Z,6.78
2023-03-30T21:21:35.184Z,7.20
2023-03-30T21:24:07.513Z,5.90
2023-03-30T21:26:35.842Z,6.40
2023-03-30T21:29:09.309Z,9.98
2023-03-30T21:31:36.753Z,6.05
2023-03-30T21:34:04.567Z,6.07
2023-03-30T21:36:32.230Z,6.15
2023-03-30T21:39:01.152Z,6.38
2023-03-30T21:41:30.804Z,5.50
2023-03-30T21:44:10.526Z,6.32
2023-03-30T21:46:37.909Z,5.97
2023-03-30T21:49:05.318Z,4.82
2023-03-30T21:51:32.883Z,5.85
2023-03-30T21:54:00.339Z,6.03
2023-03-30T21:56:29.966Z,5.00
2023-03-30T21:58:58.331Z,5.00
2023-03-30T22:01:31.807Z,6.28
2023-03-30T22:03:59.510Z,5.38
2023-03-30T22:06:28.784Z,5.00
2023-03-30T22:08:56.397Z,4.75
2023-03-30T22:11:26.442Z,4.50
2023-03-30T22:13:55.747Z,4.50
2023-03-30T22:16:38.005Z,4.63
2023-03-30T22:19:05.593Z,3.65
2023-03-30T22:21:35.826Z,3.35
2023-03-30T22:24:07.630Z,3.05
2023-03-30T22:26:36.534Z,3.47
2023-03-30T22:29:05.334Z,3.03
2023-03-30T22:31:33.905Z,3.40
2023-03-30T22:34:01.730Z,3.47
2023-03-30T22:36:31.286Z,4.18
2023-03-30T22:39:05.619Z,5.22
2023-03-30T22:41:35.732Z,6.65
2023-03-30T22:44:05.211Z,4.40
2023-03-30T22:46:35.114Z,3.75
2023-03-30T22:49:14.545Z,3.65
2023-03-30T22:51:53.019Z,3.63
2023-03-30T22:54:22.718Z,3.67
2023-03-30T22:56:51.292Z,4.00
2023-03-30T22:59:20.616Z,4.20
2023-03-30T23:01:48.097Z,4.40
2023-03-30T23:04:17.377Z,4.55
2023-03-30T23:06:51.744Z,4.95
2023-03-30T23:09:23.336Z,5.13
2023-03-30T23:11:51.549Z,5.47
2023-03-30T23:14:18.653Z,5.65
2023-03-30T23:16:46.526Z,6.22
2023-03-30T23:19:15.113Z,6.47
2023-03-30T23:21:44.916Z,6.18
2023-03-30T23:24:12.245Z,6.70
2023-03-30T23:26:45.663Z,6.25
2023-03-30T23:29:13.614Z,6.60
2023-03-30T23:31:42.200Z,6.82
2023-03-30T23:34:13.282Z,6.65
2023-03-30T23:36:49.934Z,6.80
2023-03-30T23:39:20.416Z,6.72
2023-03-30T23:41:47.714Z,6.78
2023-03-30T23:44:15.274Z,7.35
2023-03-30T23:46:43.061Z,7.90
2023-03-30T23:49:11.846Z,8.38
2023-03-30T23:51:40.262Z,7.78
2023-03-30T23:54:08.687Z,9.13
2023-03-30T23:56:38.029Z,8.40
2023-03-30T23:59:09.530Z,8.57
